UGKO/KIU METAR and TAF weather

Enter ICAO airport designator
Station Type Date Time Source
UGKO METAR 2024/04/18 08:00 UTC NOAA

UGKO 180800Z 09015G25KT CAVOK 28/12 Q1003 NOSIG


Station Type Date Time Source
UGKO Decoded METAR 2024/04/18 08:00 UTC NOAA

Station name not available
Apr 18, 2024 - 04:00 AM EDT / 2024.04.18 0800 UTC
Wind: from the E (090 degrees) at 17 MPH (15 KT) gusting to 29 MPH (25 KT):0
Visibility: greater than 7 mile(s):0
Temperature: 82 F (28 C)
Dew Point: 53 F (12 C)
Relative Humidity: 37%
Pressure (altimeter): 29.62 in. Hg (1003 hPa)
ob: UGKO 180800Z 09015G25KT CAVOK 28/12 Q1003 NOSIG
cycle: 8

Station Type Date Time Source
UGKO TAF 2024/04/18 18:06 UTC NOAA